Logo AVAMET
Benvolgut visitant, si us plau, ingressa Recuperar contrasenya
AVAMET paisatges

Xàbia Xàbia Històrica

Dades diàries. Acumulats / Últims 30 dies disponibles

Data Temperatura (°C) Humitat rel. (%) Pressió rel. (hPa) Vent (km/h) Precipitació
Mínima Mitjana Màxima Amplitud
tèrmica
Mínima Mitjana Màxima Mínima Mitjana Màxima Predom. Mitjana Ràfega
màxima
Total
(mm)
Índex-n
Mínima Mitjana Màxima Mínima Mitjana Màxima n
0 a 1
P0 max
mm 5'
Dades mensuals acumulades fins l'últim dia disponible
10/2020 12,3 15,9 18,9 19,9 19,1 23,5 29,5 17,2 28 61 90 992 1.015 1.025   8,5 70,8 8,8
Dades anuals acumulades fins l'últim dia disponible
2020 5,8 16,8 26,4 20,0 12,9 23,4 34,0 28,2 15 71 96 992 1.018 1.035   8,6 96,6 329,4
Últims 30 dies disponibles
21-10-2020 18,3     21,2     24,2 5,9 65 77 88 1.008 1.011 1.013 SO 7,2 40,2 0,0
20-10-2020 15,8     19,7     22,5 6,7 61 82 89 1.009 1.015 1.019 W 4,7 22,5 0,0
19-10-2020 14,4     18,6     22,5 8,1 64 77 89 1.019 1.020 1.022 W 5,8 30,6 0,0
18-10-2020 14,2     18,4     21,5 7,3 60 72 84 1.018 1.020 1.022 NW 7,6 30,6 0,0
17-10-2020 12,3     17,1     21,8 9,5 45 61 75 1.016 1.017 1.018 W 7,2 29,0 0,0
16-10-2020 14,3     16,8     19,1 4,8 41 53 72 1.016 1.017 1.019 NW 9,5 37,0 0,0
15-10-2020 15,1     17,8     20,2 5,1 33 45 69 1.013 1.015 1.016 NW 7,1 27,4 0,0
14-10-2020 16,2     18,3     19,7 3,5 55 70 83 1.008 1.010 1.013 ENE 7,4 37,0 0,6
13-10-2020 14,3     19,9     25,7 11,4 38 50 65 1.010 1.014 1.019 W 8,9 33,8 0,0
12-10-2020 15,9     18,1     21,1 5,2 36 46 61 1.019 1.021 1.022 WNW 11,6 35,4 0,0
11-10-2020 16,0     19,3     20,6 4,6 41 57 87 1.019 1.021 1.022 ENE 9,5 41,8 0,0
10-10-2020 18,4     21,4     24,8 6,4 65 78 88 1.020 1.021 1.023 W 4,8 22,5 0,0
09-10-2020 18,2     21,2     24,4 6,2 67 81 90 1.020 1.022 1.023 W 8,4 32,2 0,0
08-10-2020 18,9     22,1     25,3 6,4 57 78 89 1.022 1.023 1.025 E 6,1 27,4 0,0
07-10-2020 18,0     23,4     28,4 10,4 40 57 75 1.019 1.020 1.023 W 6,0 30,6 0,0
06-10-2020 16,0     21,1     26,0 10,0 35 52 74 1.019 1.020 1.022 WSW 8,2 30,6 0,0
05-10-2020 17,9     20,5     22,6 4,7 39 47 60 1.012 1.015 1.020 WNW 10,1 38,6 0,0
04-10-2020 16,0     20,3     23,9 7,9 39 45 52 1.007 1.009 1.011 WNW 12,2 40,2 0,0
03-10-2020 12,7     18,6     23,9 11,2 28 42 60 1.001 1.005 1.011 WNW 13,5 48,3 0,0
02-10-2020 12,9     21,7     26,5 13,6 39 52 87 992 998 1.005 WNW 15,6 70,8 8,2 0,46 2,40
01-10-2020 18,3     23,4     29,5 11,2 39 67 88 1.005 1.009 1.013 W 6,3 29,0 0,0
30-09-2020 17,2     20,7     24,7 7,5 68 78 86 1.013 1.015 1.017 OSO 8,9 32,2 0,0
29-09-2020 16,8     20,4     23,4 6,6 61 75 86 1.016 1.018 1.020 W 6,6 25,7 0,0
28-09-2020 17,1     20,7     23,9 6,8 39 55 75 1.014 1.016 1.018 WNW 8,4 32,2 0,0
27-09-2020 18,4     21,8     23,7 5,3 37 47 61 1.007 1.011 1.014 WNW 15,3 57,9 0,0
26-09-2020 18,2     20,9     24,2 6,0 31 39 48 1.011 1.016 1.019 WNW 11,7 41,8 0,0
25-09-2020 21,4     23,8     27,7 6,3 29 44 59 1.013 1.015 1.019 NW 11,4 51,5 0,0
24-09-2020 24,0     27,3     30,7 6,7 42 51 66 1.011 1.013 1.014 WNW 9,7 37,0 0,0
23-09-2020 21,8     25,2     29,3 7,5 45 68 86 1.011 1.012 1.013 W 6,3 29,0 0,0
22-09-2020 20,9     24,3     27,4 6,5 59 72 85 1.012 1.014 1.016 W 7,2 32,2 0,0
Últims 13 mesos disponibles
09/2020 16,8 20,5 24,0 23,7 23,4 27,0 30,7 13,9 39 68 81 1.011 1.017 1.023 W 7,8 57,9 6,0
08/2020 17,9 23,8 26,4 26,9 24,3 30,3 34,0 16,1 54 72 85 1.004 1.014 1.019 SW 8,8 66,0 46,0
07/2020 21,4 23,6 25,7 26,2 27,5 29,2 32,1 10,7 61 74 83 1.011 1.016 1.021 NNW 9,6 46,7 2,2
06/2020 15,5 19,8 22,7 23,0 20,5 26,5 29,7 14,2 44 73 85 1.005 1.014 1.021 SW 9,2 54,7 30,2
05/2020 13,8 17,5 21,6 21,0 19,9 24,9 29,2 15,4 49 69 85 1.005 1.017 1.027 WSW 8,9 49,9 11,4
04/2020 10,1 13,6 18,0 16,0 14,4 19,0 24,6 14,5 49 78 94 1.006 1.016 1.026 NNW 8,2 51,5 50,0
03/2020 8,8 12,1 16,9 14,9 12,9 18,1 24,7 15,9 42 70 92 1.007 1.017 1.026 ENE 11,5 95,0 74,6
02/2020 8,3 11,6 15,4 15,3 14,8 19,5 26,8 18,5 34 69 88 1.014 1.025 1.033 W 6,9 45,1 1,6
01/2020 5,8 9,3 15,2 12,7 13,4 16,2 22,3 16,5 50 74 89 1.014 1.025 1.033 6,3 96,6 98,6
12/2019 7,3 11,8 16,1 14,6 13,4 17,7 22,9 15,6 45 71 89 1.005 1.019 1.033 0,2 38,0 165,0
11/2019 8,1 13,0 21,1 16,2 14,5 19,6 27,7 19,6 40 56 81 999 1.011 1.019 W 12,2 74,0 12,2
10/2019 10,9 17,3 21,8 20,7 16,7 24,2 30,2 19,3 43 71 87 1.008 1.017 1.022 W 7,4 69,2 72,2
09/2019 14,2 20,7 24,1 23,8 23,0 26,7 31,0 16,8 60 78 92 1.010 1.018 1.023 NE 8,8 74,0 179,2
Tots els anys disponibles
2019 4,9 15,5 26,3 18,8 11,4 22,3 35,1 30,2 19 68 92 994 1.017 1.033 W 8,5 75,6 882,9
2018 4,4 15,9 27,3 19,1 8,2 22,9 36,9 32,5 34 78 93 998 1.017 1.028 W 8,2 72,2 675,6
2017 1,1 15,8 27,2 19,3 9,4 23,0 35,5 34,4 63 66 67 1.017 1.017 1.018 8,0 80,0 486,2
2016 4,4 16,1 26,7 19,5 12,4 22,9 38,0 33,6 55 64 78 1.014 1.018 1.025 8,5 67,0 367,4
Temperatura (°C)
Humitat relativa (%)
Velocitat del vent i ràfega màxima (km/h)
Direcció del vent (°)
Pressió (hPa)
Precipitació (mm)
Nota sobre les dades: s'avisa a l'usuari de la provisionalitat i no oficialitat d'aquestes dades
Logo AVAMET blanc
Web allotjada a Sollutia
Llicència de Creative CommonsLa web d'AVAMET i els seus continguts estan subjectes a una llicència de
Reconeixement - No Comercial - Compartir igual
Últimes estacions: Sueca - Mareny de Barraquetes (Inforatge), La Vilavella - Centre (Ajuntament Soci), Alfondeguilla (Soci), Santa Magdalena de Polpís (Soci),  Benafigos (Aj. Soci), Carlet - Ajuntament (Inforatge), Montroi (Inforatge), Bronchales (Limítrofe-Terol/Aj. Soci), Sueca - Muntanyeta dels Sants (Inforatge), Vilamarxant - Ajuntament (Aj. Soci/Inforatge) - - -